sensor_id;sensor_type;location;lat;lon;timestamp;temperature;humidity
38380;DHT22;38377;47.418;18.882;2022-10-19T00:01:21;10.30;99.90
38380;DHT22;38377;47.418;18.882;2022-10-19T00:03:49;10.20;99.90
38380;DHT22;38377;47.418;18.882;2022-10-19T00:06:21;10.20;99.90
38380;DHT22;38377;47.418;18.882;2022-10-19T00:09:04;10.20;99.90
38380;DHT22;38377;47.418;18.882;2022-10-19T00:11:31;10.20;99.90
38380;DHT22;38377;47.418;18.882;2022-10-19T00:13:58;10.20;99.90
38380;DHT22;38377;47.418;18.882;2022-10-19T00:16:26;10.30;99.90
38380;DHT22;38377;47.418;18.882;2022-10-19T00:18:55;10.20;99.90
38380;DHT22;38377;47.418;18.882;2022-10-19T00:21:21;10.30;99.90
38380;DHT22;38377;47.418;18.882;2022-10-19T00:23:47;10.20;99.90
38380;DHT22;38377;47.418;18.882;2022-10-19T00:26:13;10.20;99.90
38380;DHT22;38377;47.418;18.882;2022-10-19T00:28:39;10.20;99.90
38380;DHT22;38377;47.418;18.882;2022-10-19T00:31:08;10.10;99.90
38380;DHT22;38377;47.418;18.882;2022-10-19T00:33:35;10.00;99.90
38380;DHT22;38377;47.418;18.882;2022-10-19T00:36:01;9.90;99.90
38380;DHT22;38377;47.418;18.882;2022-10-19T00:38:27;9.80;99.90
38380;DHT22;38377;47.418;18.882;2022-10-19T00:40:52;9.70;99.90
38380;DHT22;38377;47.418;18.882;2022-10-19T00:43:21;9.60;99.90
38380;DHT22;38377;47.418;18.882;2022-10-19T00:45:47;9.70;99.90
38380;DHT22;38377;47.418;18.882;2022-10-19T00:48:26;9.70;99.90
38380;DHT22;38377;47.418;18.882;2022-10-19T00:50:55;9.70;99.90
38380;DHT22;38377;47.418;18.882;2022-10-19T00:53:25;9.70;99.90
38380;DHT22;38377;47.418;18.882;2022-10-19T00:55:52;9.60;99.90
38380;DHT22;38377;47.418;18.882;2022-10-19T00:58:18;9.60;99.90
38380;DHT22;38377;47.418;18.882;2022-10-19T01:00:44;9.60;99.90
38380;DHT22;38377;47.418;18.882;2022-10-19T01:03:11;9.60;99.90
38380;DHT22;38377;47.418;18.882;2022-10-19T01:05:37;9.70;99.90
38380;DHT22;38377;47.418;18.882;2022-10-19T01:08:05;9.70;99.90
38380;DHT22;38377;47.418;18.882;2022-10-19T01:18:21;9.90;99.90
38380;DHT22;38377;47.418;18.882;2022-10-19T01:24:07;10.30;99.90
38380;DHT22;38377;47.418;18.882;2022-10-19T01:32:23;11.20;99.90
38380;DHT22;38377;47.418;18.882;2022-10-19T01:35:34;11.60;99.90
38380;DHT22;38377;47.418;18.882;2022-10-19T01:38:04;11.90;99.90
38380;DHT22;38377;47.418;18.882;2022-10-19T01:43:38;12.50;99.90
38380;DHT22;38377;47.418;18.882;2022-10-19T01:48:34;12.70;99.90
38380;DHT22;38377;47.418;18.882;2022-10-19T01:51:07;12.70;99.90
38380;DHT22;38377;47.418;18.882;2022-10-19T01:53:40;12.70;99.90
38380;DHT22;38377;47.418;18.882;2022-10-19T01:56:07;12.50;99.90
38380;DHT22;38377;47.418;18.882;2022-10-19T01:58:35;12.40;99.90
38380;DHT22;38377;47.418;18.882;2022-10-19T02:01:05;12.30;99.90
38380;DHT22;38377;47.418;18.882;2022-10-19T02:03:34;12.20;99.90
38380;DHT22;38377;47.418;18.882;2022-10-19T02:06:06;12.00;99.90
38380;DHT22;38377;47.418;18.882;2022-10-19T02:08:46;11.90;99.90
38380;DHT22;38377;47.418;18.882;2022-10-19T02:11:12;12.00;99.90
38380;DHT22;38377;47.418;18.882;2022-10-19T02:13:38;12.10;99.90
38380;DHT22;38377;47.418;18.882;2022-10-19T02:16:08;12.10;99.90
38380;DHT22;38377;47.418;18.882;2022-10-19T02:18:40;12.30;99.90
38380;DHT22;38377;47.418;18.882;2022-10-19T02:21:07;12.50;99.90
38380;DHT22;38377;47.418;18.882;2022-10-19T02:23:34;12.70;99.90
38380;DHT22;38377;47.418;18.882;2022-10-19T02:26:00;12.70;99.90
38380;DHT22;38377;47.418;18.882;2022-10-19T02:28:27;12.70;99.90
38380;DHT22;38377;47.418;18.882;2022-10-19T02:30:55;12.70;99.90
38380;DHT22;38377;47.418;18.882;2022-10-19T02:33:21;12.70;99.90
38380;DHT22;38377;47.418;18.882;2022-10-19T02:35:47;12.70;99.90
38380;DHT22;38377;47.418;18.882;2022-10-19T02:38:15;12.60;99.90
38380;DHT22;38377;47.418;18.882;2022-10-19T02:40:53;12.50;99.90
38380;DHT22;38377;47.418;18.882;2022-10-19T02:43:22;12.40;99.90
38380;DHT22;38377;47.418;18.882;2022-10-19T02:45:59;12.40;99.90
38380;DHT22;38377;47.418;18.882;2022-10-19T02:48:26;12.40;99.90
38380;DHT22;38377;47.418;18.882;2022-10-19T02:50:54;12.30;99.90
38380;DHT22;38377;47.418;18.882;2022-10-19T02:53:19;12.30;99.90
38380;DHT22;38377;47.418;18.882;2022-10-19T02:55:47;12.30;99.90
38380;DHT22;38377;47.418;18.882;2022-10-19T02:58:14;12.30;99.90
38380;DHT22;38377;47.418;18.882;2022-10-19T03:00:39;12.30;99.90
38380;DHT22;38377;47.418;18.882;2022-10-19T03:03:05;12.30;99.90
38380;DHT22;38377;47.418;18.882;2022-10-19T03:05:31;12.30;99.90
38380;DHT22;38377;47.418;18.882;2022-10-19T03:07:56;12.20;99.90
38380;DHT22;38377;47.418;18.882;2022-10-19T03:10:22;12.20;99.90
38380;DHT22;38377;47.418;18.882;2022-10-19T03:12:49;12.20;99.90
38380;DHT22;38377;47.418;18.882;2022-10-19T03:15:16;12.20;99.90
38380;DHT22;38377;47.418;18.882;2022-10-19T03:17:42;12.20;99.90
38380;DHT22;38377;47.418;18.882;2022-10-19T03:20:08;12.20;99.90
38380;DHT22;38377;47.418;18.882;2022-10-19T03:22:34;12.40;99.90
38380;DHT22;38377;47.418;18.882;2022-10-19T03:25:00;12.50;99.90
38380;DHT22;38377;47.418;18.882;2022-10-19T03:27:26;12.50;99.90
38380;DHT22;38377;47.418;18.882;2022-10-19T03:29:51;12.40;99.90
38380;DHT22;38377;47.418;18.882;2022-10-19T03:32:17;12.40;99.90
38380;DHT22;38377;47.418;18.882;2022-10-19T03:34:43;12.40;99.90
38380;DHT22;38377;47.418;18.882;2022-10-19T03:37:08;12.40;99.90
38380;DHT22;38377;47.418;18.882;2022-10-19T03:39:34;12.40;99.90
38380;DHT22;38377;47.418;18.882;2022-10-19T03:42:00;12.50;99.90
38380;DHT22;38377;47.418;18.882;2022-10-19T03:44:26;12.50;99.90
38380;DHT22;38377;47.418;18.882;2022-10-19T03:46:51;12.60;99.90
38380;DHT22;38377;47.418;18.882;2022-10-19T03:49:17;12.70;99.90
38380;DHT22;38377;47.418;18.882;2022-10-19T03:51:43;12.70;99.90
38380;DHT22;38377;47.418;18.882;2022-10-19T03:54:13;12.70;99.90
38380;DHT22;38377;47.418;18.882;2022-10-19T03:56:39;12.70;99.90
38380;DHT22;38377;47.418;18.882;2022-10-19T03:59:06;12.70;99.90
38380;DHT22;38377;47.418;18.882;2022-10-19T04:01:40;12.70;99.90
38380;DHT22;38377;47.418;18.882;2022-10-19T04:04:09;12.60;99.90
38380;DHT22;38377;47.418;18.882;2022-10-19T04:06:38;12.50;99.90
38380;DHT22;38377;47.418;18.882;2022-10-19T04:09:05;12.50;99.90
38380;DHT22;38377;47.418;18.882;2022-10-19T04:11:33;12.40;99.90
38380;DHT22;38377;47.418;18.882;2022-10-19T04:13:59;12.40;99.90
38380;DHT22;38377;47.418;18.882;2022-10-19T04:16:27;12.40;99.90
38380;DHT22;38377;47.418;18.882;2022-10-19T04:18:53;12.40;99.90
38380;DHT22;38377;47.418;18.882;2022-10-19T04:21:31;12.30;99.90
38380;DHT22;38377;47.418;18.882;2022-10-19T04:24:09;12.30;99.90
38380;DHT22;38377;47.418;18.882;2022-10-19T04:26:44;12.20;99.90
38380;DHT22;38377;47.418;18.882;2022-10-19T04:29:10;12.20;99.90
38380;DHT22;38377;47.418;18.882;2022-10-19T04:31:37;12.10;99.90
38380;DHT22;38377;47.418;18.882;2022-10-19T04:34:03;12.00;99.90
38380;DHT22;38377;47.418;18.882;2022-10-19T04:36:29;11.90;99.90
38380;DHT22;38377;47.418;18.882;2022-10-19T04:38:55;11.70;99.90
38380;DHT22;38377;47.418;18.882;2022-10-19T04:41:21;11.60;99.90
38380;DHT22;38377;47.418;18.882;2022-10-19T04:43:48;11.60;99.90
38380;DHT22;38377;47.418;18.882;2022-10-19T04:46:18;11.50;99.90
38380;DHT22;38377;47.418;18.882;2022-10-19T04:48:45;11.30;99.90
38380;DHT22;38377;47.418;18.882;2022-10-19T04:51:12;11.30;99.90
38380;DHT22;38377;47.418;18.882;2022-10-19T04:53:40;11.20;99.90
38380;DHT22;38377;47.418;18.882;2022-10-19T04:56:10;11.10;99.90
38380;DHT22;38377;47.418;18.882;2022-10-19T04:58:36;11.00;99.90
38380;DHT22;38377;47.418;18.882;2022-10-19T05:01:16;11.00;99.90
38380;DHT22;38377;47.418;18.882;2022-10-19T05:03:42;11.00;99.90
38380;DHT22;38377;47.418;18.882;2022-10-19T05:06:10;11.00;99.90
38380;DHT22;38377;47.418;18.882;2022-10-19T05:08:37;11.10;99.90
38380;DHT22;38377;47.418;18.882;2022-10-19T05:11:13;11.10;99.90
38380;DHT22;38377;47.418;18.882;2022-10-19T05:13:40;11.10;99.90
38380;DHT22;38377;47.418;18.882;2022-10-19T05:16:10;11.20;99.90
38380;DHT22;38377;47.418;18.882;2022-10-19T05:18:36;11.10;99.90
38380;DHT22;38377;47.418;18.882;2022-10-19T05:21:03;11.10;99.90
38380;DHT22;38377;47.418;18.882;2022-10-19T05:23:29;11.10;99.90
38380;DHT22;38377;47.418;18.882;2022-10-19T05:26:04;11.10;99.90
38380;DHT22;38377;47.418;18.882;2022-10-19T05:28:31;11.10;99.90
38380;DHT22;38377;47.418;18.882;2022-10-19T05:31:08;11.10;99.90
38380;DHT22;38377;47.418;18.882;2022-10-19T05:33:35;11.00;99.90
38380;DHT22;38377;47.418;18.882;2022-10-19T05:38:39;11.00;99.90
38380;DHT22;38377;47.418;18.882;2022-10-19T05:41:05;11.00;99.90
38380;DHT22;38377;47.418;18.882;2022-10-19T05:43:31;11.10;99.90
38380;DHT22;38377;47.418;18.882;2022-10-19T05:46:01;11.10;99.90
38380;DHT22;38377;47.418;18.882;2022-10-19T05:48:27;11.10;99.90
38380;DHT22;38377;47.418;18.882;2022-10-19T05:50:57;11.20;99.90
38380;DHT22;38377;47.418;18.882;2022-10-19T05:53:24;11.30;99.90
38380;DHT22;38377;47.418;18.882;2022-10-19T05:55:50;11.30;99.90
38380;DHT22;38377;47.418;18.882;2022-10-19T05:58:15;11.50;99.90
38380;DHT22;38377;47.418;18.882;2022-10-19T06:00:41;11.60;99.90
38380;DHT22;38377;47.418;18.882;2022-10-19T06:03:07;11.80;99.90
38380;DHT22;38377;47.418;18.882;2022-10-19T06:05:35;11.90;99.90
38380;DHT22;38377;47.418;18.882;2022-10-19T06:08:01;12.20;99.90
38380;DHT22;38377;47.418;18.882;2022-10-19T06:10:26;12.20;99.90
38380;DHT22;38377;47.418;18.882;2022-10-19T06:12:52;12.20;99.90
38380;DHT22;38377;47.418;18.882;2022-10-19T06:15:18;12.20;99.90
38380;DHT22;38377;47.418;18.882;2022-10-19T06:17:43;12.20;99.90
38380;DHT22;38377;47.418;18.882;2022-10-19T06:20:09;12.20;99.90
38380;DHT22;38377;47.418;18.882;2022-10-19T06:22:35;12.20;99.90
38380;DHT22;38377;47.418;18.882;2022-10-19T06:25:01;12.30;99.90
38380;DHT22;38377;47.418;18.882;2022-10-19T06:27:26;12.40;99.90
38380;DHT22;38377;47.418;18.882;2022-10-19T06:29:52;12.40;99.90
38380;DHT22;38377;47.418;18.882;2022-10-19T06:32:18;12.50;99.90
38380;DHT22;38377;47.418;18.882;2022-10-19T06:34:43;12.60;99.90
38380;DHT22;38377;47.418;18.882;2022-10-19T06:37:09;12.70;99.90
38380;DHT22;38377;47.418;18.882;2022-10-19T06:39:34;12.80;99.90
38380;DHT22;38377;47.418;18.882;2022-10-19T06:42:00;12.90;99.90
38380;DHT22;38377;47.418;18.882;2022-10-19T06:44:26;13.00;99.90
38380;DHT22;38377;47.418;18.882;2022-10-19T06:46:51;13.10;99.90
38380;DHT22;38377;47.418;18.882;2022-10-19T06:49:17;13.20;99.90
38380;DHT22;38377;47.418;18.882;2022-10-19T06:51:43;13.20;99.90
38380;DHT22;38377;47.418;18.882;2022-10-19T06:54:08;13.30;99.90
38380;DHT22;38377;47.418;18.882;2022-10-19T06:56:35;13.40;99.90
38380;DHT22;38377;47.418;18.882;2022-10-19T06:59:00;13.40;99.90
38380;DHT22;38377;47.418;18.882;2022-10-19T07:01:26;13.40;99.90
38380;DHT22;38377;47.418;18.882;2022-10-19T07:03:52;13.40;99.90
38380;DHT22;38377;47.418;18.882;2022-10-19T07:06:19;13.40;99.90
38380;DHT22;38377;47.418;18.882;2022-10-19T07:08:45;13.50;99.90
38380;DHT22;38377;47.418;18.882;2022-10-19T07:11:14;13.50;99.90
38380;DHT22;38377;47.418;18.882;2022-10-19T07:13:41;13.50;99.90
38380;DHT22;38377;47.418;18.882;2022-10-19T07:16:09;13.60;99.90
38380;DHT22;38377;47.418;18.882;2022-10-19T07:18:37;13.60;99.90
38380;DHT22;38377;47.418;18.882;2022-10-19T07:21:06;13.60;99.90
38380;DHT22;38377;47.418;18.882;2022-10-19T07:23:33;13.70;99.90
38380;DHT22;38377;47.418;18.882;2022-10-19T07:26:06;13.60;99.90
38380;DHT22;38377;47.418;18.882;2022-10-19T07:28:34;13.60;99.90
38380;DHT22;38377;47.418;18.882;2022-10-19T07:31:07;13.70;99.90
38380;DHT22;38377;47.418;18.882;2022-10-19T07:33:33;13.80;99.90
38380;DHT22;38377;47.418;18.882;2022-10-19T07:36:00;13.80;99.90
38380;DHT22;38377;47.418;18.882;2022-10-19T07:38:26;13.90;99.90
38380;DHT22;38377;47.418;18.882;2022-10-19T07:41:06;14.10;99.90
38380;DHT22;38377;47.418;18.882;2022-10-19T07:43:33;14.20;99.90
38380;DHT22;38377;47.418;18.882;2022-10-19T07:46:01;14.10;99.90
38380;DHT22;38377;47.418;18.882;2022-10-19T07:48:27;14.20;99.90
38380;DHT22;38377;47.418;18.882;2022-10-19T07:50:53;14.40;99.90
38380;DHT22;38377;47.418;18.882;2022-10-19T07:53:19;14.50;99.90
38380;DHT22;38377;47.418;18.882;2022-10-19T07:55:45;14.60;99.90
38380;DHT22;38377;47.418;18.882;2022-10-19T07:58:11;14.60;99.90
38380;DHT22;38377;47.418;18.882;2022-10-19T08:00:36;14.60;99.90
38380;DHT22;38377;47.418;18.882;2022-10-19T08:03:02;14.80;99.90
38380;DHT22;38377;47.418;18.882;2022-10-19T08:05:28;14.90;99.90
38380;DHT22;38377;47.418;18.882;2022-10-19T08:07:56;15.00;99.90
38380;DHT22;38377;47.418;18.882;2022-10-19T08:10:22;15.10;99.90
38380;DHT22;38377;47.418;18.882;2022-10-19T08:12:48;15.30;99.90
38380;DHT22;38377;47.418;18.882;2022-10-19T08:15:13;15.50;99.90
38380;DHT22;38377;47.418;18.882;2022-10-19T08:17:40;15.60;99.90
38380;DHT22;38377;47.418;18.882;2022-10-19T08:20:07;15.70;99.90
38380;DHT22;38377;47.418;18.882;2022-10-19T08:22:33;15.80;99.90
38380;DHT22;38377;47.418;18.882;2022-10-19T08:24:59;15.80;99.90
38380;DHT22;38377;47.418;18.882;2022-10-19T08:27:25;15.90;99.90
38380;DHT22;38377;47.418;18.882;2022-10-19T08:29:51;16.20;99.90
38380;DHT22;38377;47.418;18.882;2022-10-19T08:32:17;16.40;99.90
38380;DHT22;38377;47.418;18.882;2022-10-19T08:34:43;16.40;99.90
38380;DHT22;38377;47.418;18.882;2022-10-19T08:37:09;16.40;99.90
38380;DHT22;38377;47.418;18.882;2022-10-19T08:39:35;16.40;99.90
38380;DHT22;38377;47.418;18.882;2022-10-19T08:42:04;16.50;99.90
38380;DHT22;38377;47.418;18.882;2022-10-19T08:45:00;16.40;99.90
38380;DHT22;38377;47.418;18.882;2022-10-19T08:47:53;16.60;99.90
38380;DHT22;38377;47.418;18.882;2022-10-19T08:50:35;16.70;99.90
38380;DHT22;38377;47.418;18.882;2022-10-19T08:53:10;16.80;99.90
38380;DHT22;38377;47.418;18.882;2022-10-19T09:01:23;17.30;99.90
38380;DHT22;38377;47.418;18.882;2022-10-19T09:09:03;17.40;99.90
38380;DHT22;38377;47.418;18.882;2022-10-19T09:11:33;17.40;99.90
38380;DHT22;38377;47.418;18.882;2022-10-19T09:16:39;17.80;99.90
38380;DHT22;38377;47.418;18.882;2022-10-19T09:19:14;17.90;99.90
38380;DHT22;38377;47.418;18.882;2022-10-19T09:21:55;18.10;99.90
38380;DHT22;38377;47.418;18.882;2022-10-19T09:26:59;18.40;99.90
38380;DHT22;38377;47.418;18.882;2022-10-19T09:29:40;18.50;98.40
38380;DHT22;38377;47.418;18.882;2022-10-19T09:32:16;18.50;98.20
38380;DHT22;38377;47.418;18.882;2022-10-19T09:34:55;18.60;97.70
38380;DHT22;38377;47.418;18.882;2022-10-19T09:37:23;18.70;98.40
38380;DHT22;38377;47.418;18.882;2022-10-19T09:39:49;18.80;97.70
38380;DHT22;38377;47.418;18.882;2022-10-19T09:44:59;18.60;97.10
38380;DHT22;38377;47.418;18.882;2022-10-19T09:47:33;18.50;96.20
38380;DHT22;38377;47.418;18.882;2022-10-19T09:50:19;18.20;97.00
38380;DHT22;38377;47.418;18.882;2022-10-19T09:52:50;18.40;96.80
38380;DHT22;38377;47.418;18.882;2022-10-19T09:57:43;18.40;95.80
38380;DHT22;38377;47.418;18.882;2022-10-19T10:00:30;18.50;95.20
38380;DHT22;38377;47.418;18.882;2022-10-19T10:02:56;18.50;95.30
38380;DHT22;38377;47.418;18.882;2022-10-19T10:05:36;18.40;94.40
38380;DHT22;38377;47.418;18.882;2022-10-19T10:08:08;18.40;94.40
38380;DHT22;38377;47.418;18.882;2022-10-19T10:10:38;18.40;94.30
38380;DHT22;38377;47.418;18.882;2022-10-19T10:13:16;18.50;93.90
38380;DHT22;38377;47.418;18.882;2022-10-19T10:15:48;18.40;94.20
38380;DHT22;38377;47.418;18.882;2022-10-19T10:18:16;18.40;93.80
38380;DHT22;38377;47.418;18.882;2022-10-19T10:24:15;18.50;92.60
38380;DHT22;38377;47.418;18.882;2022-10-19T10:26:44;18.50;91.60
38380;DHT22;38377;47.418;18.882;2022-10-19T10:29:30;18.60;91.60
38380;DHT22;38377;47.418;18.882;2022-10-19T10:32:04;18.60;90.90
38380;DHT22;38377;47.418;18.882;2022-10-19T10:34:54;18.60;91.20
38380;DHT22;38377;47.418;18.882;2022-10-19T10:39:56;18.70;91.50
38380;DHT22;38377;47.418;18.882;2022-10-19T10:42:28;18.70;91.20
38380;DHT22;38377;47.418;18.882;2022-10-19T10:44:55;18.70;92.30
38380;DHT22;38377;47.418;18.882;2022-10-19T10:47:21;18.90;93.10
38380;DHT22;38377;47.418;18.882;2022-10-19T10:50:14;18.90;91.70
38380;DHT22;38377;47.418;18.882;2022-10-19T10:53:01;18.80;92.00
38380;DHT22;38377;47.418;18.882;2022-10-19T10:55:28;18.90;93.00
38380;DHT22;38377;47.418;18.882;2022-10-19T10:58:22;18.90;91.70
38380;DHT22;38377;47.418;18.882;2022-10-19T11:00:56;19.00;90.20
38380;DHT22;38377;47.418;18.882;2022-10-19T11:03:27;19.10;88.00
38380;DHT22;38377;47.418;18.882;2022-10-19T11:05:59;19.00;85.30
38380;DHT22;38377;47.418;18.882;2022-10-19T11:11:24;19.00;83.20
38380;DHT22;38377;47.418;18.882;2022-10-19T11:16:34;19.00;85.10
38380;DHT22;38377;47.418;18.882;2022-10-19T11:19:32;19.20;86.60
38380;DHT22;38377;47.418;18.882;2022-10-19T11:40:37;18.60;89.30
38380;DHT22;38377;47.418;18.882;2022-10-19T11:43:06;18.50;89.20
38380;DHT22;38377;47.418;18.882;2022-10-19T11:45:44;18.50;90.00
38380;DHT22;38377;47.418;18.882;2022-10-19T11:48:21;18.50;90.60
38380;DHT22;38377;47.418;18.882;2022-10-19T12:05:03;17.70;88.80
38380;DHT22;38377;47.418;18.882;2022-10-19T12:13:08;17.20;90.50
38380;DHT22;38377;47.418;18.882;2022-10-19T12:15:47;17.30;90.50
38380;DHT22;38377;47.418;18.882;2022-10-19T12:18:39;17.60;90.60
38380;DHT22;38377;47.418;18.882;2022-10-19T12:21:22;17.90;90.80
38380;DHT22;38377;47.418;18.882;2022-10-19T12:23:50;18.00;90.60
38380;DHT22;38377;47.418;18.882;2022-10-19T12:26:19;18.20;90.20
38380;DHT22;38377;47.418;18.882;2022-10-19T12:28:51;18.20;90.00
38380;DHT22;38377;47.418;18.882;2022-10-19T12:31:19;18.20;89.60
38380;DHT22;38377;47.418;18.882;2022-10-19T12:39:25;18.10;89.30
38380;DHT22;38377;47.418;18.882;2022-10-19T12:41:56;18.10;90.60
38380;DHT22;38377;47.418;18.882;2022-10-19T12:47:25;18.00;88.30
38380;DHT22;38377;47.418;18.882;2022-10-19T12:49:52;17.90;88.10
38380;DHT22;38377;47.418;18.882;2022-10-19T12:52:42;17.90;88.20
38380;DHT22;38377;47.418;18.882;2022-10-19T12:57:43;17.80;87.30
38380;DHT22;38377;47.418;18.882;2022-10-19T13:00:24;17.80;85.50
38380;DHT22;38377;47.418;18.882;2022-10-19T13:03:16;17.90;86.20
38380;DHT22;38377;47.418;18.882;2022-10-19T13:06:08;17.90;79.90
38380;DHT22;38377;47.418;18.882;2022-10-19T13:11:17;17.90;83.70
38380;DHT22;38377;47.418;18.882;2022-10-19T13:29:40;17.60;83.30
38380;DHT22;38377;47.418;18.882;2022-10-19T13:32:47;17.60;83.80
38380;DHT22;38377;47.418;18.882;2022-10-19T13:35:33;17.60;85.20
38380;DHT22;38377;47.418;18.882;2022-10-19T13:40:55;17.70;85.10
38380;DHT22;38377;47.418;18.882;2022-10-19T13:43:29;17.60;85.20
38380;DHT22;38377;47.418;18.882;2022-10-19T13:46:24;17.70;83.80
38380;DHT22;38377;47.418;18.882;2022-10-19T13:49:46;17.60;83.80
38380;DHT22;38377;47.418;18.882;2022-10-19T14:00:24;17.30;85.90
38380;DHT22;38377;47.418;18.882;2022-10-19T14:11:37;17.40;85.90
38380;DHT22;38377;47.418;18.882;2022-10-19T14:16:59;17.20;85.60
38380;DHT22;38377;47.418;18.882;2022-10-19T14:19:29;17.00;83.00
38380;DHT22;38377;47.418;18.882;2022-10-19T14:21:58;16.90;82.40
38380;DHT22;38377;47.418;18.882;2022-10-19T14:24:28;16.70;82.00
38380;DHT22;38377;47.418;18.882;2022-10-19T14:26:54;16.60;82.70
38380;DHT22;38377;47.418;18.882;2022-10-19T14:29:20;16.50;83.80
38380;DHT22;38377;47.418;18.882;2022-10-19T14:31:46;16.40;84.80
38380;DHT22;38377;47.418;18.882;2022-10-19T14:34:13;16.30;86.40
38380;DHT22;38377;47.418;18.882;2022-10-19T14:36:46;16.30;85.40
38380;DHT22;38377;47.418;18.882;2022-10-19T14:39:32;16.30;85.70
38380;DHT22;38377;47.418;18.882;2022-10-19T14:42:05;16.10;85.80
38380;DHT22;38377;47.418;18.882;2022-10-19T14:44:41;16.00;87.10
38380;DHT22;38377;47.418;18.882;2022-10-19T14:47:21;15.90;86.60
38380;DHT22;38377;47.418;18.882;2022-10-19T14:49:48;15.80;87.50
38380;DHT22;38377;47.418;18.882;2022-10-19T14:52:21;15.80;87.40
38380;DHT22;38377;47.418;18.882;2022-10-19T14:54:50;15.80;87.60
38380;DHT22;38377;47.418;18.882;2022-10-19T14:59:53;15.60;88.00
38380;DHT22;38377;47.418;18.882;2022-10-19T15:02:24;15.50;88.40
38380;DHT22;38377;47.418;18.882;2022-10-19T15:04:52;15.50;88.20
38380;DHT22;38377;47.418;18.882;2022-10-19T15:09:59;15.40;88.60
38380;DHT22;38377;47.418;18.882;2022-10-19T15:12:39;15.40;88.00
38380;DHT22;38377;47.418;18.882;2022-10-19T15:15:32;15.40;89.10
38380;DHT22;38377;47.418;18.882;2022-10-19T15:20:33;15.30;89.50
38380;DHT22;38377;47.418;18.882;2022-10-19T15:23:01;15.20;89.30
38380;DHT22;38377;47.418;18.882;2022-10-19T15:27:55;15.10;89.70
38380;DHT22;38377;47.418;18.882;2022-10-19T15:30:25;15.10;90.00
38380;DHT22;38377;47.418;18.882;2022-10-19T15:35:29;14.90;90.30
38380;DHT22;38377;47.418;18.882;2022-10-19T15:40:46;14.70;90.50
38380;DHT22;38377;47.418;18.882;2022-10-19T15:43:34;14.60;90.80
38380;DHT22;38377;47.418;18.882;2022-10-19T15:46:26;14.50;91.20
38380;DHT22;38377;47.418;18.882;2022-10-19T15:49:25;14.40;90.70
38380;DHT22;38377;47.418;18.882;2022-10-19T15:51:49;14.40;90.90
38380;DHT22;38377;47.418;18.882;2022-10-19T15:54:16;14.40;90.50
38380;DHT22;38377;47.418;18.882;2022-10-19T15:56:45;14.40;90.50
38380;DHT22;38377;47.418;18.882;2022-10-19T15:59:16;14.30;90.80
38380;DHT22;38377;47.418;18.882;2022-10-19T16:01:43;14.30;91.10
38380;DHT22;38377;47.418;18.882;2022-10-19T16:04:09;14.20;91.00
38380;DHT22;38377;47.418;18.882;2022-10-19T16:06:37;14.10;91.40
38380;DHT22;38377;47.418;18.882;2022-10-19T16:09:04;14.00;91.40
38380;DHT22;38377;47.418;18.882;2022-10-19T16:11:30;13.90;91.60
38380;DHT22;38377;47.418;18.882;2022-10-19T16:13:56;13.90;91.80
38380;DHT22;38377;47.418;18.882;2022-10-19T16:16:30;13.70;91.80
38380;DHT22;38377;47.418;18.882;2022-10-19T16:18:57;13.60;91.90
38380;DHT22;38377;47.418;18.882;2022-10-19T16:21:27;13.60;91.70
38380;DHT22;38377;47.418;18.882;2022-10-19T16:23:53;13.50;91.60
38380;DHT22;38377;47.418;18.882;2022-10-19T16:26:19;13.50;91.40
38380;DHT22;38377;47.418;18.882;2022-10-19T16:28:45;13.50;91.70
38380;DHT22;38377;47.418;18.882;2022-10-19T16:31:11;13.50;91.30
38380;DHT22;38377;47.418;18.882;2022-10-19T16:33:36;13.40;91.40
38380;DHT22;38377;47.418;18.882;2022-10-19T16:36:05;13.40;91.40
38380;DHT22;38377;47.418;18.882;2022-10-19T16:38:31;13.40;91.20
38380;DHT22;38377;47.418;18.882;2022-10-19T16:41:02;13.30;91.30
38380;DHT22;38377;47.418;18.882;2022-10-19T16:43:28;13.20;91.30
38380;DHT22;38377;47.418;18.882;2022-10-19T16:45:54;13.20;91.50
38380;DHT22;38377;47.418;18.882;2022-10-19T16:48:20;13.10;91.50
38380;DHT22;38377;47.418;18.882;2022-10-19T16:53:36;13.10;91.40
38380;DHT22;38377;47.418;18.882;2022-10-19T16:56:09;13.00;91.60
38380;DHT22;38377;47.418;18.882;2022-10-19T16:58:35;13.00;91.50
38380;DHT22;38377;47.418;18.882;2022-10-19T17:01:08;12.90;91.50
38380;DHT22;38377;47.418;18.882;2022-10-19T17:03:35;12.90;91.70
38380;DHT22;38377;47.418;18.882;2022-10-19T17:06:02;12.80;91.80
38380;DHT22;38377;47.418;18.882;2022-10-19T17:08:29;12.70;92.10
38380;DHT22;38377;47.418;18.882;2022-10-19T17:10:56;12.60;92.20
38380;DHT22;38377;47.418;18.882;2022-10-19T17:13:21;12.60;92.10
38380;DHT22;38377;47.418;18.882;2022-10-19T17:15:47;12.60;92.20
38380;DHT22;38377;47.418;18.882;2022-10-19T17:18:13;12.60;92.50
38380;DHT22;38377;47.418;18.882;2022-10-19T17:20:38;12.50;92.50
38380;DHT22;38377;47.418;18.882;2022-10-19T17:23:04;12.50;92.70
38380;DHT22;38377;47.418;18.882;2022-10-19T17:25:30;12.40;93.00
38380;DHT22;38377;47.418;18.882;2022-10-19T17:27:55;12.30;93.00
38380;DHT22;38377;47.418;18.882;2022-10-19T17:30:21;12.30;93.00
38380;DHT22;38377;47.418;18.882;2022-10-19T17:32:47;12.30;93.00
38380;DHT22;38377;47.418;18.882;2022-10-19T17:35:12;12.30;93.00
38380;DHT22;38377;47.418;18.882;2022-10-19T17:37:38;12.20;93.10
38380;DHT22;38377;47.418;18.882;2022-10-19T17:40:04;12.20;93.30
38380;DHT22;38377;47.418;18.882;2022-10-19T17:42:30;12.10;93.20
38380;DHT22;38377;47.418;18.882;2022-10-19T17:44:56;12.10;93.10
38380;DHT22;38377;47.418;18.882;2022-10-19T17:47:22;12.10;93.10
38380;DHT22;38377;47.418;18.882;2022-10-19T17:49:48;12.10;93.20
38380;DHT22;38377;47.418;18.882;2022-10-19T17:52:13;12.10;93.20
38380;DHT22;38377;47.418;18.882;2022-10-19T17:54:39;12.10;93.10
38380;DHT22;38377;47.418;18.882;2022-10-19T17:57:05;12.10;93.10
38380;DHT22;38377;47.418;18.882;2022-10-19T17:59:30;12.10;93.20
38380;DHT22;38377;47.418;18.882;2022-10-19T18:01:56;12.10;93.20
38380;DHT22;38377;47.418;18.882;2022-10-19T18:04:22;12.10;93.40
38380;DHT22;38377;47.418;18.882;2022-10-19T18:06:47;12.00;93.30
38380;DHT22;38377;47.418;18.882;2022-10-19T18:09:13;12.00;93.50
38380;DHT22;38377;47.418;18.882;2022-10-19T18:11:42;11.90;93.50
38380;DHT22;38377;47.418;18.882;2022-10-19T18:14:10;11.80;93.70
38380;DHT22;38377;47.418;18.882;2022-10-19T18:16:41;11.80;93.90
38380;DHT22;38377;47.418;18.882;2022-10-19T18:19:13;11.80;94.00
38380;DHT22;38377;47.418;18.882;2022-10-19T18:21:41;11.70;94.00